METAR Data
IDs: Format: Raw Decoded Include TAF

Data at: 1540 UTC 16 Feb 2019

METAR for:KMIE (Muncie/Johnson Fld, IN, US)
Text:KMIE 161453Z 05010KT 10SM OVC017 M04/M08 A3007 RMK AO2 SLP189 T10391083 51010
Temperature: -3.9°C ( 25°F)
Dewpoint: -8.3°C ( 17°F) [RH = 71%]
Pressure (altimeter):30.07 inches Hg (1018.4 mb) [Sea level pressure: 1018.9 mb]
Winds:from the NE (50 degrees) at 12 MPH (10 knots; 5.1 m/s)
Visibility:10 or more sm (16+ km)
Ceiling:1700 feet AGL
Clouds: overcast cloud deck at 1700 feet AGL